createdAt,value
2018-11-29T00:00:46.133Z,83.58
2018-11-29T00:03:15.587Z,83.23
2018-11-29T00:05:45.126Z,83.61
2018-11-29T00:08:14.552Z,83.59
2018-11-29T00:10:44.045Z,83.73
2018-11-29T00:13:13.547Z,83.67
2018-11-29T00:15:43.047Z,83.48
2018-11-29T00:18:12.539Z,83.95
2018-11-29T00:20:42.029Z,83.82
2018-11-29T00:23:11.662Z,83.88
2018-11-29T00:25:41.121Z,83.75
2018-11-29T00:28:10.673Z,84.08
2018-11-29T00:30:40.205Z,84.15
2018-11-29T00:33:09.686Z,84.27
2018-11-29T00:35:39.149Z,84.09
2018-11-29T00:38:08.788Z,84.21
2018-11-29T00:40:38.293Z,84.27
2018-11-29T00:43:07.769Z,84.38
2018-11-29T00:45:37.231Z,84.23
2018-11-29T00:48:06.824Z,84.45
2018-11-29T00:50:36.344Z,84.96
2018-11-29T00:53:05.930Z,84.84
2018-11-29T00:55:35.465Z,84.71
2018-11-29T00:58:04.963Z,85.00
2018-11-29T01:00:34.675Z,84.89
2018-11-29T01:03:04.179Z,84.90
2018-11-29T01:05:33.612Z,84.98
2018-11-29T01:08:03.179Z,85.15
2018-11-29T01:10:32.612Z,85.27
2018-11-29T01:13:02.083Z,85.13
2018-11-29T01:15:31.541Z,84.94
2018-11-29T01:18:01.012Z,85.00
2018-11-29T01:20:30.517Z,84.78
2018-11-29T01:23:00.008Z,85.48
2018-11-29T01:25:29.504Z,85.07
2018-11-29T01:27:58.983Z,85.20
2018-11-29T01:30:28.513Z,85.28
2018-11-29T01:32:58.021Z,85.38
2018-11-29T01:35:27.440Z,85.40
2018-11-29T01:37:56.909Z,85.45
2018-11-29T01:40:26.354Z,85.73
2018-11-29T01:42:57.967Z,85.69
2018-11-29T01:45:27.658Z,85.47
2018-11-29T01:47:57.134Z,85.47
2018-11-29T01:50:26.600Z,85.72
2018-11-29T01:52:56.080Z,85.61
2018-11-29T01:55:25.527Z,85.53
2018-11-29T01:57:55.040Z,85.60
2018-11-29T02:00:24.508Z,85.83
2018-11-29T02:02:54.360Z,85.59
2018-11-29T02:05:23.828Z,85.48
2018-11-29T02:07:53.372Z,85.43
2018-11-29T02:10:26.095Z,85.43
2018-11-29T02:12:56.204Z,85.37
2018-11-29T02:15:25.669Z,85.26
2018-11-29T02:17:55.284Z,85.39
2018-11-29T02:20:24.740Z,85.20
2018-11-29T02:22:54.272Z,84.92
2018-11-29T02:25:23.767Z,85.22
2018-11-29T02:27:53.376Z,84.72
2018-11-29T02:30:23.682Z,85.01
2018-11-29T02:32:53.518Z,84.61
2018-11-29T02:35:23.050Z,84.61
2018-11-29T02:37:52.524Z,84.47
2018-11-29T02:40:21.996Z,84.18
2018-11-29T02:42:52.116Z,84.11
2018-11-29T02:45:23.517Z,84.07
2018-11-29T02:47:52.989Z,84.14
2018-11-29T02:50:22.482Z,83.73
2018-11-29T02:52:52.241Z,83.64
2018-11-29T02:55:21.987Z,83.72
2018-11-29T02:57:51.749Z,83.59
2018-11-29T03:00:21.533Z,83.25
2018-11-29T03:02:51.282Z,83.45
2018-11-29T03:05:21.029Z,82.94
2018-11-29T03:07:50.725Z,83.00
2018-11-29T03:10:26.537Z,82.89
2018-11-29T03:12:56.401Z,82.85
2018-11-29T03:15:26.191Z,82.74
2018-11-29T03:17:55.936Z,82.94
2018-11-29T03:20:25.665Z,82.82
2018-11-29T03:22:55.506Z,82.35
2018-11-29T03:25:25.236Z,82.30
2018-11-29T03:27:54.933Z,82.60
2018-11-29T03:30:24.633Z,82.18
2018-11-29T03:32:54.363Z,82.16
2018-11-29T03:35:24.205Z,82.32
2018-11-29T03:37:53.896Z,82.24
2018-11-29T03:40:23.726Z,82.09
2018-11-29T03:42:53.481Z,82.10
2018-11-29T03:45:23.217Z,82.23
2018-11-29T03:47:52.901Z,82.08
2018-11-29T03:50:22.679Z,82.13
2018-11-29T03:52:52.372Z,81.91
2018-11-29T03:55:22.081Z,81.87
2018-11-29T03:57:51.804Z,81.40
2018-11-29T04:00:21.497Z,81.28
2018-11-29T04:02:51.294Z,81.17
2018-11-29T04:05:20.999Z,81.03
2018-11-29T04:07:50.749Z,80.83
2018-11-29T04:10:20.441Z,80.91
2018-11-29T04:12:50.360Z,80.95
2018-11-29T04:15:20.139Z,80.75
2018-11-29T04:17:49.856Z,80.31
2018-11-29T04:20:19.570Z,80.52
2018-11-29T04:22:49.276Z,80.34
2018-11-29T04:25:19.048Z,80.25
2018-11-29T04:27:48.801Z,80.40
2018-11-29T04:30:18.696Z,80.36
2018-11-29T04:32:48.431Z,80.11
2018-11-29T04:35:18.153Z,80.12
2018-11-29T04:37:47.879Z,79.85
2018-11-29T04:40:18.572Z,79.97
2018-11-29T04:42:48.515Z,79.76
2018-11-29T04:45:18.954Z,79.74
2018-11-29T04:47:48.786Z,79.70
2018-11-29T04:50:18.780Z,79.56
2018-11-29T04:52:48.517Z,79.52
2018-11-29T04:55:18.228Z,79.21
2018-11-29T04:57:47.937Z,79.36
2018-11-29T05:00:17.995Z,79.36
2018-11-29T05:02:47.741Z,78.68
2018-11-29T05:05:17.472Z,78.81
2018-11-29T05:07:47.241Z,78.06
2018-11-29T05:10:17.787Z,78.38
2018-11-29T05:12:48.324Z,78.21
2018-11-29T05:15:18.165Z,78.05
2018-11-29T05:17:47.951Z,77.30
2018-11-29T05:20:17.746Z,77.46
2018-11-29T05:22:47.508Z,77.45
2018-11-29T05:25:17.351Z,77.47
2018-11-29T05:27:47.063Z,77.09
2018-11-29T05:30:16.925Z,76.91
2018-11-29T05:32:46.801Z,76.76
2018-11-29T05:35:16.595Z,76.15
2018-11-29T05:37:46.417Z,75.92
2018-11-29T05:40:16.232Z,75.79
2018-11-29T05:42:46.101Z,75.43
2018-11-29T05:45:18.732Z,75.75
2018-11-29T05:47:48.575Z,75.13
2018-11-29T05:50:18.372Z,74.74
2018-11-29T05:52:48.163Z,74.60
2018-11-29T05:55:17.908Z,74.55
2018-11-29T05:57:47.689Z,74.54
2018-11-29T06:00:17.533Z,74.63
2018-11-29T06:02:47.250Z,74.16
2018-11-29T06:05:17.764Z,73.97
2018-11-29T06:07:47.465Z,73.78
2018-11-29T06:10:19.330Z,73.74
2018-11-29T06:12:49.504Z,73.40
2018-11-29T06:15:19.369Z,73.47
2018-11-29T06:17:49.148Z,73.24
2018-11-29T06:20:20.250Z,73.25
2018-11-29T06:22:50.023Z,73.63
2018-11-29T06:25:19.742Z,73.15
2018-11-29T06:27:49.458Z,73.13
2018-11-29T06:30:22.304Z,73.00
2018-11-29T06:32:53.205Z,73.14
2018-11-29T06:35:22.979Z,73.56
2018-11-29T06:37:52.697Z,72.54
2018-11-29T06:40:22.544Z,72.43
2018-11-29T06:42:52.761Z,72.14
2018-11-29T06:45:23.150Z,72.00
2018-11-29T06:47:53.891Z,71.95
2018-11-29T06:50:23.728Z,72.09
2018-11-29T06:52:53.697Z,71.70
2018-11-29T06:55:25.408Z,71.78
2018-11-29T06:57:55.557Z,71.61
2018-11-29T07:00:31.428Z,71.40
2018-11-29T07:03:01.236Z,71.23
2018-11-29T07:05:31.072Z,71.38
2018-11-29T07:08:00.826Z,71.45
2018-11-29T07:10:33.270Z,70.98
2018-11-29T07:13:04.486Z,71.48
2018-11-29T07:15:34.237Z,71.41
2018-11-29T07:18:04.356Z,71.23
2018-11-29T07:20:34.070Z,70.87
2018-11-29T07:23:03.872Z,70.78
2018-11-29T07:25:33.581Z,70.37
2018-11-29T07:28:03.337Z,69.99
2018-11-29T07:30:33.122Z,69.93
2018-11-29T07:33:02.928Z,69.79
2018-11-29T07:35:32.690Z,69.52
2018-11-29T07:38:02.407Z,68.66
2018-11-29T07:40:32.595Z,68.57
2018-11-29T07:43:02.357Z,68.29
2018-11-29T07:45:32.088Z,67.88
2018-11-29T07:48:01.823Z,67.71
2018-11-29T07:50:31.578Z,67.22
2018-11-29T07:53:01.401Z,66.52
2018-11-29T07:55:31.136Z,65.19
2018-11-29T07:58:00.923Z,63.81
2018-11-29T08:00:30.754Z,63.28
2018-11-29T08:03:00.461Z,62.28
2018-11-29T08:05:30.161Z,61.81
2018-11-29T08:07:59.896Z,60.90
2018-11-29T08:10:29.588Z,60.09
2018-11-29T08:12:59.336Z,61.51
2018-11-29T08:15:29.049Z,61.52
2018-11-29T08:17:58.741Z,62.47
2018-11-29T08:20:28.415Z,62.89
2018-11-29T08:22:58.140Z,62.97
2018-11-29T08:25:27.860Z,62.74
2018-11-29T08:27:57.573Z,62.99
2018-11-29T08:30:27.298Z,62.49
2018-11-29T08:32:56.991Z,62.30
2018-11-29T08:35:26.742Z,61.88
2018-11-29T08:37:56.472Z,61.94
2018-11-29T08:40:26.198Z,61.07
2018-11-29T08:42:55.932Z,60.12
2018-11-29T08:45:25.724Z,59.28
2018-11-29T08:47:55.398Z,57.12
2018-11-29T08:50:25.149Z,55.85
2018-11-29T08:52:54.816Z,55.03
2018-11-29T08:55:24.719Z,54.46
2018-11-29T08:57:54.466Z,54.56
2018-11-29T09:00:24.288Z,54.55
2018-11-29T09:02:53.998Z,55.04
2018-11-29T09:05:23.804Z,55.33
2018-11-29T09:07:53.480Z,55.39
2018-11-29T09:10:24.420Z,56.32
2018-11-29T09:12:54.378Z,56.41
2018-11-29T09:15:24.165Z,56.81
2018-11-29T09:17:54.024Z,57.04
2018-11-29T09:20:24.036Z,57.07
2018-11-29T09:22:53.815Z,56.88
2018-11-29T09:25:24.232Z,57.25
2018-11-29T09:27:53.959Z,57.44
2018-11-29T09:30:24.571Z,57.01
2018-11-29T09:32:55.279Z,56.42
2018-11-29T09:35:25.049Z,55.45
2018-11-29T09:37:54.735Z,55.22
2018-11-29T09:40:24.443Z,55.48
2018-11-29T09:42:54.257Z,56.36
2018-11-29T09:45:24.635Z,56.66
2018-11-29T09:47:55.850Z,56.75
2018-11-29T09:50:26.700Z,56.73
2018-11-29T09:52:56.477Z,56.83
2018-11-29T09:55:26.224Z,57.10
2018-11-29T09:57:56.025Z,56.83
2018-11-29T10:00:28.478Z,55.70
2018-11-29T10:03:12.964Z,54.92
2018-11-29T10:05:44.828Z,54.21
2018-11-29T10:08:16.552Z,54.48
2018-11-29T10:10:46.444Z,54.38
2018-11-29T10:13:16.156Z,54.63
2018-11-29T10:15:45.944Z,55.00
2018-11-29T10:18:15.768Z,55.83
2018-11-29T10:20:45.591Z,56.60
2018-11-29T10:23:15.486Z,56.19
2018-11-29T10:25:45.317Z,56.96
2018-11-29T10:28:16.733Z,56.66
2018-11-29T10:30:52.245Z,56.02
2018-11-29T10:33:22.244Z,55.14
2018-11-29T10:35:58.721Z,55.14
2018-11-29T10:38:22.155Z,54.40
2018-11-29T10:40:51.857Z,54.21
2018-11-29T10:43:21.636Z,54.35
2018-11-29T10:45:51.439Z,54.02
2018-11-29T10:48:23.201Z,54.02
2018-11-29T10:50:52.918Z,54.16
2018-11-29T10:53:22.643Z,53.97
2018-11-29T10:55:52.658Z,54.40
2018-11-29T10:58:22.754Z,54.21
2018-11-29T11:00:57.770Z,53.99
2018-11-29T11:03:27.608Z,54.36
2018-11-29T11:05:57.393Z,54.45
2018-11-29T11:08:27.229Z,54.38
2018-11-29T11:10:57.092Z,54.57
2018-11-29T11:13:26.817Z,54.74
2018-11-29T11:15:56.529Z,54.90
2018-11-29T11:18:26.347Z,55.12
2018-11-29T11:20:56.023Z,54.99
2018-11-29T11:23:25.799Z,54.92
2018-11-29T11:25:55.614Z,55.08
2018-11-29T11:28:25.410Z,55.04
2018-11-29T11:30:55.244Z,54.82
2018-11-29T11:33:25.032Z,54.44
2018-11-29T11:35:54.751Z,54.34
2018-11-29T11:38:24.473Z,54.14
2018-11-29T11:40:54.432Z,54.45
2018-11-29T11:43:24.133Z,54.63
2018-11-29T11:45:53.912Z,54.07
2018-11-29T11:48:23.645Z,53.84
2018-11-29T11:50:53.321Z,54.59
2018-11-29T11:53:23.043Z,54.54
2018-11-29T11:55:53.744Z,54.45
2018-11-29T11:58:22.536Z,54.54
2018-11-29T12:00:52.381Z,54.50
2018-11-29T12:03:22.250Z,54.10
2018-11-29T12:05:52.009Z,53.90
2018-11-29T12:08:21.822Z,53.47
2018-11-29T12:10:53.851Z,53.67
2018-11-29T12:13:26.677Z,53.33
2018-11-29T12:15:56.640Z,53.44
2018-11-29T12:18:26.346Z,53.58
2018-11-29T12:20:56.232Z,53.80
2018-11-29T12:23:25.973Z,53.72
2018-11-29T12:25:55.654Z,53.43
2018-11-29T12:28:25.422Z,53.43
2018-11-29T12:30:55.399Z,53.31
2018-11-29T12:33:25.118Z,53.37
2018-11-29T12:35:54.880Z,53.14
2018-11-29T12:38:24.741Z,52.75
2018-11-29T12:40:54.451Z,52.76
2018-11-29T12:43:24.240Z,53.24
2018-11-29T12:45:54.178Z,53.34
2018-11-29T12:48:23.864Z,52.97
2018-11-29T12:50:53.606Z,52.95
2018-11-29T12:53:23.784Z,52.99
2018-11-29T12:55:53.482Z,53.16
2018-11-29T12:58:23.289Z,52.68
2018-11-29T13:00:53.093Z,52.81
2018-11-29T13:03:22.761Z,52.97
2018-11-29T13:05:52.486Z,52.83
2018-11-29T13:08:25.870Z,52.56
2018-11-29T13:10:55.761Z,52.29
2018-11-29T13:13:27.557Z,52.17
2018-11-29T13:15:55.521Z,51.95
2018-11-29T13:18:25.245Z,51.86
2018-11-29T13:21:03.727Z,51.70
2018-11-29T13:23:33.416Z,51.54
2018-11-29T13:26:03.368Z,51.74
2018-11-29T13:28:33.042Z,51.46
2018-11-29T13:31:02.760Z,51.56
2018-11-29T13:33:33.067Z,51.17
2018-11-29T13:36:02.660Z,51.40
2018-11-29T13:38:32.380Z,51.13
2018-11-29T13:41:02.250Z,51.23
2018-11-29T13:43:32.291Z,51.53
2018-11-29T13:46:02.082Z,51.68
2018-11-29T13:48:31.795Z,51.58
2018-11-29T13:51:01.563Z,51.92
2018-11-29T13:53:31.264Z,51.49
2018-11-29T13:56:01.144Z,51.47
2018-11-29T13:58:30.842Z,51.29
2018-11-29T14:01:00.748Z,51.17
2018-11-29T14:03:30.465Z,51.40
2018-11-29T14:06:00.806Z,51.27
2018-11-29T14:08:30.552Z,51.38
2018-11-29T14:11:00.232Z,51.59
2018-11-29T14:13:29.906Z,51.42
2018-11-29T14:15:59.606Z,51.34
2018-11-29T14:18:29.382Z,51.61
2018-11-29T14:20:59.140Z,51.48
2018-11-29T14:23:28.868Z,51.45
2018-11-29T14:25:58.596Z,51.69
2018-11-29T14:28:28.374Z,51.63
2018-11-29T14:30:58.125Z,51.73
2018-11-29T14:33:27.824Z,51.74
2018-11-29T14:35:57.534Z,51.88
2018-11-29T14:38:27.311Z,51.54
2018-11-29T14:40:57.030Z,51.68
2018-11-29T14:43:26.732Z,51.91
2018-11-29T14:45:56.471Z,51.81
2018-11-29T14:48:26.171Z,51.88
2018-11-29T14:51:02.164Z,52.16
2018-11-29T14:53:25.829Z,51.96
2018-11-29T14:55:55.617Z,52.07
2018-11-29T14:58:25.313Z,52.20
2018-11-29T15:00:55.056Z,51.93
2018-11-29T15:03:24.931Z,51.94
2018-11-29T15:05:54.618Z,52.27
2018-11-29T15:08:24.300Z,52.21
2018-11-29T15:10:54.570Z,52.22
2018-11-29T15:13:24.248Z,52.38
2018-11-29T15:15:53.963Z,52.63
2018-11-29T15:18:23.681Z,52.33
2018-11-29T15:20:53.377Z,52.49
2018-11-29T15:23:23.104Z,52.76
2018-11-29T15:25:52.846Z,52.60
2018-11-29T15:28:22.603Z,53.06
2018-11-29T15:30:52.340Z,53.01
2018-11-29T15:33:22.052Z,52.86
2018-11-29T15:35:51.809Z,52.87
2018-11-29T15:38:21.508Z,52.61
2018-11-29T15:40:51.308Z,52.93
2018-11-29T15:43:21.020Z,52.67
2018-11-29T15:45:50.797Z,52.94
2018-11-29T15:48:20.541Z,52.97
2018-11-29T15:50:50.281Z,53.01
2018-11-29T15:53:20.090Z,52.69
2018-11-29T15:55:49.797Z,52.88
2018-11-29T15:58:19.660Z,53.09
2018-11-29T16:00:49.356Z,53.08
2018-11-29T16:03:19.080Z,52.95
2018-11-29T16:05:48.828Z,53.14
2018-11-29T16:08:18.555Z,53.38
2018-11-29T16:10:48.260Z,53.63
2018-11-29T16:13:17.966Z,53.35
2018-11-29T16:15:47.701Z,53.84
2018-11-29T16:18:17.506Z,53.68
2018-11-29T16:20:47.577Z,53.85
2018-11-29T16:23:17.337Z,53.77
2018-11-29T16:25:47.169Z,54.24
2018-11-29T16:28:16.952Z,54.37
2018-11-29T16:30:53.483Z,54.05
2018-11-29T16:33:31.866Z,54.45
2018-11-29T16:36:01.644Z,54.48
2018-11-29T16:38:31.539Z,54.23
2018-11-29T16:41:01.314Z,54.32
2018-11-29T16:43:31.113Z,54.48
2018-11-29T16:46:00.870Z,54.69
2018-11-29T16:48:30.612Z,54.73
2018-11-29T16:51:00.518Z,54.97
2018-11-29T16:53:30.194Z,55.03
2018-11-29T16:55:59.998Z,54.76
2018-11-29T16:58:31.428Z,54.78
2018-11-29T17:01:01.209Z,55.12
2018-11-29T17:03:31.057Z,55.33
2018-11-29T17:06:00.790Z,55.24
2018-11-29T17:08:30.663Z,55.26
2018-11-29T17:11:00.424Z,55.31
2018-11-29T17:13:30.280Z,55.01
2018-11-29T17:16:00.134Z,55.12
2018-11-29T17:18:29.857Z,55.13
2018-11-29T17:20:59.569Z,55.39
2018-11-29T17:23:29.379Z,55.41
2018-11-29T17:25:59.091Z,55.65
2018-11-29T17:28:29.049Z,55.94
2018-11-29T17:30:58.916Z,55.56
2018-11-29T17:33:28.695Z,55.70
2018-11-29T17:35:58.409Z,55.68
2018-11-29T17:38:28.091Z,55.64
2018-11-29T17:40:58.040Z,55.67
2018-11-29T17:43:27.738Z,55.65
2018-11-29T17:45:57.436Z,55.66
2018-11-29T17:48:27.190Z,55.68
2018-11-29T17:50:56.875Z,55.62
2018-11-29T17:53:26.671Z,55.39
2018-11-29T17:55:56.479Z,55.33
2018-11-29T17:58:26.364Z,55.48
2018-11-29T18:00:56.210Z,55.28
2018-11-29T18:03:25.920Z,55.29
2018-11-29T18:05:55.643Z,55.21
2018-11-29T18:08:25.326Z,55.58
2018-11-29T18:10:58.341Z,55.36
2018-11-29T18:13:37.053Z,55.05
2018-11-29T18:16:07.520Z,55.34
2018-11-29T18:18:37.255Z,54.66
2018-11-29T18:21:07.120Z,55.26
2018-11-29T18:23:36.804Z,55.04
2018-11-29T18:26:06.975Z,55.40
2018-11-29T18:28:36.720Z,54.98
2018-11-29T18:31:06.634Z,55.31
2018-11-29T18:33:36.345Z,55.10
2018-11-29T18:36:06.665Z,55.28
2018-11-29T18:38:36.394Z,55.00
2018-11-29T18:41:06.445Z,55.07
2018-11-29T18:43:36.377Z,55.06
2018-11-29T18:46:06.326Z,55.52
2018-11-29T18:48:36.058Z,54.99
2018-11-29T18:51:06.088Z,55.16
2018-11-29T18:53:35.792Z,55.19
2018-11-29T18:56:05.756Z,55.00
2018-11-29T18:58:35.473Z,54.89
2018-11-29T19:01:05.383Z,54.82
2018-11-29T19:03:35.124Z,54.89
2018-11-29T19:06:04.976Z,54.79
2018-11-29T19:08:34.693Z,54.93
2018-11-29T19:11:04.426Z,54.83
2018-11-29T19:13:34.346Z,54.66
2018-11-29T19:16:04.029Z,54.36
2018-11-29T19:18:33.748Z,54.38
2018-11-29T19:21:03.541Z,54.24
2018-11-29T19:23:33.329Z,54.61
2018-11-29T19:26:03.028Z,54.55
2018-11-29T19:28:32.716Z,54.75
2018-11-29T19:31:02.457Z,54.71
2018-11-29T19:33:32.161Z,54.68
2018-11-29T19:36:01.970Z,54.71
2018-11-29T19:38:31.803Z,54.71
2018-11-29T19:41:01.598Z,54.97
2018-11-29T19:43:31.314Z,54.77
2018-11-29T19:46:01.052Z,54.77
2018-11-29T19:48:30.800Z,54.72
2018-11-29T19:51:00.653Z,54.58
2018-11-29T19:53:30.422Z,54.65
2018-11-29T19:56:02.113Z,54.91
2018-11-29T19:58:31.814Z,54.84
2018-11-29T20:01:01.543Z,54.64
2018-11-29T20:03:31.355Z,54.81
2018-11-29T20:06:01.153Z,54.83
2018-11-29T20:08:30.984Z,54.92
2018-11-29T20:11:00.814Z,54.71
2018-11-29T20:13:30.563Z,54.48
2018-11-29T20:16:00.298Z,54.63
2018-11-29T20:18:30.030Z,55.08
2018-11-29T20:20:59.735Z,54.80
2018-11-29T20:23:29.542Z,54.76
2018-11-29T20:25:59.357Z,54.69
2018-11-29T20:28:29.132Z,54.66
2018-11-29T20:30:58.863Z,54.61
2018-11-29T20:33:28.644Z,54.60
2018-11-29T20:35:58.443Z,54.89
2018-11-29T20:38:28.235Z,54.91
2018-11-29T20:40:57.944Z,55.07
2018-11-29T20:43:27.740Z,54.84
2018-11-29T20:45:58.345Z,54.75
2018-11-29T20:48:29.904Z,54.95
2018-11-29T20:51:01.087Z,55.01
2018-11-29T20:53:37.762Z,55.02
2018-11-29T20:56:13.616Z,54.99
2018-11-29T20:58:43.326Z,55.17
2018-11-29T21:01:13.132Z,55.00
2018-11-29T21:03:42.930Z,55.00
2018-11-29T21:06:14.385Z,54.92
2018-11-29T21:08:44.163Z,55.06
2018-11-29T21:11:13.960Z,55.40
2018-11-29T21:13:43.752Z,55.42
2018-11-29T21:16:13.530Z,55.54
2018-11-29T21:18:43.393Z,55.19
2018-11-29T21:21:13.072Z,55.49
2018-11-29T21:23:42.846Z,55.63
2018-11-29T21:26:12.622Z,55.50
2018-11-29T21:28:42.301Z,55.61
2018-11-29T21:31:12.137Z,55.61
2018-11-29T21:33:41.982Z,55.46
2018-11-29T21:36:11.648Z,55.63
2018-11-29T21:38:41.321Z,55.65
2018-11-29T21:41:11.091Z,55.91
2018-11-29T21:43:40.862Z,55.47
2018-11-29T21:47:16.578Z,56.01
2018-11-29T21:49:46.299Z,55.82
2018-11-29T21:52:16.012Z,56.12
2018-11-29T21:54:45.928Z,55.87
2018-11-29T21:57:15.614Z,55.69
2018-11-29T21:59:45.384Z,55.61
2018-11-29T22:02:15.409Z,55.90
2018-11-29T22:04:45.449Z,56.01
2018-11-29T22:07:15.198Z,56.03
2018-11-29T22:09:45.100Z,55.82
2018-11-29T22:12:15.104Z,55.93
2018-11-29T22:14:44.939Z,55.84
2018-11-29T22:17:14.702Z,56.00
2018-11-29T22:19:44.448Z,55.83
2018-11-29T22:22:14.289Z,55.82
2018-11-29T22:24:44.041Z,56.04
2018-11-29T22:27:13.754Z,55.64
2018-11-29T22:29:43.524Z,56.04
2018-11-29T22:32:13.252Z,55.69
2018-11-29T22:34:43.030Z,55.77
2018-11-29T22:37:12.748Z,55.49
2018-11-29T22:39:42.484Z,55.51
2018-11-29T22:42:12.200Z,55.62
2018-11-29T22:44:41.975Z,55.28
2018-11-29T22:47:11.706Z,55.37
2018-11-29T22:49:41.426Z,55.43
2018-11-29T22:52:11.334Z,55.71
2018-11-29T22:54:41.091Z,55.43
2018-11-29T22:57:11.025Z,55.83
2018-11-29T22:59:41.512Z,55.58
2018-11-29T23:02:11.461Z,55.89
2018-11-29T23:04:41.376Z,55.95
2018-11-29T23:07:11.112Z,56.10
2018-11-29T23:09:40.887Z,56.33
2018-11-29T23:12:10.601Z,56.15
2018-11-29T23:14:40.356Z,56.38
2018-11-29T23:17:10.104Z,56.17
2018-11-29T23:19:39.960Z,56.42
2018-11-29T23:22:09.855Z,56.53
2018-11-29T23:24:39.592Z,56.61
2018-11-29T23:27:09.375Z,56.48
2018-11-29T23:29:39.149Z,57.04
2018-11-29T23:32:08.932Z,56.74
2018-11-29T23:34:38.680Z,56.87
2018-11-29T23:37:08.390Z,57.00
2018-11-29T23:39:38.174Z,56.82
2018-11-29T23:42:07.973Z,56.57
2018-11-29T23:44:37.695Z,56.97
2018-11-29T23:47:07.628Z,56.60
2018-11-29T23:49:37.340Z,56.58
2018-11-29T23:52:07.589Z,56.67
2018-11-29T23:54:37.305Z,56.97
2018-11-29T23:57:07.817Z,56.96
2018-11-29T23:59:37.782Z,56.69
